createdAt,value
2022-12-25T00:00:36.561Z,37.47
2022-12-25T00:03:03.137Z,38.13
2022-12-25T00:05:29.657Z,37.63
2022-12-25T00:07:56.142Z,30.98
2022-12-25T00:10:22.942Z,27.90
2022-12-25T00:12:49.389Z,29.65
2022-12-25T00:15:15.961Z,28.70
2022-12-25T00:17:42.446Z,37.80
2022-12-25T00:20:09.205Z,34.20
2022-12-25T00:22:35.660Z,39.92
2022-12-25T00:25:02.254Z,32.90
2022-12-25T00:27:31.531Z,43.17
2022-12-25T00:29:57.985Z,33.33
2022-12-25T00:32:24.369Z,28.95
2022-12-25T00:34:50.848Z,37.45
2022-12-25T00:37:17.378Z,29.60
2022-12-25T00:39:43.845Z,34.00
2022-12-25T01:22:20.335Z,43.58
2022-12-25T01:24:46.899Z,35.85
2022-12-25T01:34:34.234Z,30.48
2022-12-25T01:47:04.940Z,28.15
2022-12-25T01:49:31.977Z,27.00
2022-12-25T01:52:01.710Z,35.53
2022-12-25T01:54:30.341Z,33.07
2022-12-25T01:56:59.069Z,28.05
2022-12-25T01:59:26.109Z,30.27
2022-12-25T02:01:53.269Z,34.03
2022-12-25T02:04:40.228Z,26.05
2022-12-25T02:07:08.499Z,31.27
2022-12-25T02:09:35.450Z,31.05
2022-12-25T02:12:02.088Z,22.23
2022-12-25T02:51:16.074Z,28.00
2022-12-25T02:54:02.277Z,20.50
2022-12-25T02:56:48.201Z,27.95
2022-12-25T02:59:34.929Z,24.15
2022-12-25T03:02:21.554Z,30.67
2022-12-25T03:05:08.151Z,25.08
2022-12-25T03:07:37.023Z,18.25
2022-12-25T03:10:24.641Z,22.67
2022-12-25T03:12:57.528Z,26.42
2022-12-25T03:15:42.793Z,23.13
2022-12-25T03:18:12.513Z,25.25
2022-12-25T03:20:57.963Z,19.45
2022-12-25T03:24:06.363Z,15.77
2022-12-25T03:26:51.707Z,19.90
2022-12-25T11:58:28.978Z,18.53
2022-12-25T12:00:57.528Z,23.58
2022-12-25T12:03:27.402Z,25.60
2022-12-25T12:05:59.798Z,17.13
2022-12-25T12:08:26.417Z,21.92
2022-12-25T12:11:16.117Z,23.03
2022-12-25T12:13:57.994Z,18.92
2022-12-25T12:16:24.741Z,19.30
2022-12-25T12:18:51.351Z,22.60
2022-12-25T12:21:17.771Z,24.85
2022-12-25T12:24:03.177Z,22.90
2022-12-25T12:26:30.714Z,16.70
2022-12-25T12:29:01.440Z,26.02
2022-12-25T12:31:42.575Z,24.75
2022-12-25T12:34:22.268Z,23.08
2022-12-25T12:36:49.286Z,20.20
2022-12-25T12:39:24.538Z,21.35
2022-12-25T12:41:51.664Z,23.45
2022-12-25T12:44:18.542Z,24.35
2022-12-25T12:46:54.441Z,22.73
2022-12-25T12:49:20.934Z,31.53
2022-12-25T12:51:48.235Z,26.00
2022-12-25T12:54:25.295Z,29.38
2022-12-25T12:57:01.976Z,30.90
2022-12-25T12:59:40.061Z,28.98
2022-12-25T13:02:09.623Z,32.67
2022-12-25T13:04:52.311Z,29.30
2022-12-25T13:07:18.751Z,33.30
2022-12-25T13:10:11.629Z,42.08
2022-12-25T13:12:38.244Z,35.47
2022-12-25T13:15:11.491Z,25.23
2022-12-25T13:17:37.955Z,27.42
2022-12-25T13:20:04.934Z,40.30
2022-12-25T13:22:33.102Z,29.05
2022-12-25T13:25:00.964Z,37.60
2022-12-25T13:27:31.186Z,36.03
2022-12-25T13:29:58.629Z,34.40
2022-12-25T13:32:27.387Z,40.00
2022-12-25T13:34:54.192Z,37.05
2022-12-25T13:37:24.795Z,38.50
2022-12-25T13:39:53.265Z,52.60
2022-12-25T13:42:21.007Z,46.10
2022-12-25T13:44:48.981Z,38.22
2022-12-25T13:47:23.001Z,37.33
2022-12-25T13:49:50.256Z,31.88
2022-12-25T13:52:20.217Z,36.87
2022-12-25T13:54:57.118Z,33.92
2022-12-25T13:57:49.615Z,36.45
2022-12-25T14:00:21.355Z,33.00
2022-12-25T14:02:48.714Z,32.28
2022-12-25T14:05:24.385Z,33.10
2022-12-25T14:07:54.934Z,40.88
2022-12-25T14:10:25.567Z,36.47
2022-12-25T14:12:53.578Z,40.13
2022-12-25T14:15:23.858Z,37.38
2022-12-25T14:17:51.600Z,41.20
2022-12-25T14:20:24.059Z,38.65
2022-12-25T14:22:52.229Z,35.97
2022-12-25T14:25:19.309Z,40.22
2022-12-25T14:27:51.545Z,49.28
2022-12-25T14:30:18.679Z,42.97
2022-12-25T14:32:47.502Z,41.97
2022-12-25T14:35:19.712Z,48.00
2022-12-25T14:37:51.373Z,40.90
2022-12-25T14:40:28.669Z,42.22
2022-12-25T14:42:57.351Z,41.47
2022-12-25T14:45:26.947Z,35.15
2022-12-25T14:47:54.318Z,38.58
2022-12-25T14:50:26.769Z,36.53
2022-12-25T14:52:53.943Z,51.50
2022-12-25T14:55:22.014Z,53.63
2022-12-25T14:57:50.163Z,44.00
2022-12-25T15:00:24.710Z,42.20
2022-12-25T15:02:52.891Z,44.15
2022-12-25T15:05:27.835Z,54.35
2022-12-25T15:08:19.352Z,52.70
2022-12-25T15:10:59.779Z,41.50
2022-12-25T15:13:27.747Z,50.70
2022-12-25T15:16:04.208Z,47.45
2022-12-25T15:18:33.133Z,54.15
2022-12-25T15:20:59.696Z,49.67
2022-12-25T15:23:26.174Z,48.92
2022-12-25T15:25:52.767Z,49.58
2022-12-25T15:28:19.688Z,45.38
2022-12-25T15:30:46.519Z,51.42
2022-12-25T15:33:13.693Z,51.67
2022-12-25T15:38:07.204Z,52.55
2022-12-25T15:40:33.855Z,69.20
2022-12-25T15:43:00.312Z,50.63
2022-12-25T15:45:28.685Z,79.83
2022-12-25T15:47:55.234Z,81.13
2022-12-25T15:50:21.792Z,67.32
2022-12-25T15:52:48.655Z,58.92
2022-12-25T15:55:15.756Z,56.88
2022-12-25T15:57:43.612Z,58.73
2022-12-25T16:00:17.851Z,54.10
2022-12-25T16:02:45.076Z,51.90
2022-12-25T16:05:12.044Z,51.15
2022-12-25T16:07:38.513Z,58.35
2022-12-25T16:10:05.944Z,58.03
2022-12-25T16:12:32.594Z,53.97
2022-12-25T16:14:59.142Z,57.13
2022-12-25T16:17:26.036Z,52.17
2022-12-25T16:19:52.618Z,62.33
2022-12-25T16:22:21.576Z,68.13
2022-12-25T16:24:48.308Z,93.90
2022-12-25T16:27:14.787Z,53.08
2022-12-25T16:32:09.865Z,60.22
2022-12-25T16:34:36.399Z,46.67
2022-12-25T16:37:03.016Z,58.25
2022-12-25T16:39:29.516Z,51.80
2022-12-25T16:41:55.987Z,48.95
2022-12-25T16:44:22.464Z,50.05
2022-12-25T16:46:49.030Z,52.33
2022-12-25T16:49:15.725Z,61.95
2022-12-25T16:51:42.210Z,51.83
2022-12-25T16:54:08.719Z,54.58
2022-12-25T16:56:36.747Z,50.90
2022-12-25T16:59:03.229Z,61.47
2022-12-25T17:01:29.900Z,59.60
2022-12-25T17:06:31.182Z,61.47
2022-12-25T17:08:59.084Z,61.42
2022-12-25T17:11:29.726Z,62.13
2022-12-25T17:13:57.040Z,57.22
2022-12-25T17:16:25.260Z,61.20
2022-12-25T17:19:01.475Z,79.60
2022-12-25T17:21:29.050Z,95.15
2022-12-25T17:24:01.726Z,60.17
2022-12-25T17:26:30.079Z,56.65
2022-12-25T17:28:57.363Z,54.75
2022-12-25T17:31:24.056Z,51.33
2022-12-25T17:33:50.611Z,51.35
2022-12-25T17:36:18.403Z,66.40
2022-12-25T17:38:45.442Z,60.47
2022-12-25T17:41:13.036Z,67.20
2022-12-25T17:43:44.250Z,59.17
2022-12-25T17:46:18.262Z,58.78
2022-12-25T17:48:45.590Z,61.63
2022-12-25T17:51:13.169Z,61.45
2022-12-25T17:53:40.844Z,58.80
2022-12-25T17:56:07.898Z,50.53
2022-12-25T17:58:34.544Z,60.08
2022-12-25T18:01:08.724Z,74.47
2022-12-25T18:03:36.839Z,59.47
2022-12-25T18:06:04.564Z,68.18
2022-12-25T18:08:37.028Z,60.60
2022-12-25T18:11:07.243Z,60.08
2022-12-25T18:13:33.936Z,58.60
2022-12-25T18:16:03.978Z,78.75
2022-12-25T18:18:30.972Z,64.53
2022-12-25T18:20:57.460Z,64.50
2022-12-25T18:23:24.476Z,66.10
2022-12-25T18:25:50.966Z,64.57
2022-12-25T18:28:17.746Z,72.28
2022-12-25T18:30:45.497Z,70.93
2022-12-25T18:33:12.320Z,71.13
2022-12-25T18:38:09.369Z,49.13
2022-12-25T18:40:46.003Z,57.25
2022-12-25T18:43:12.799Z,53.75
2022-12-25T18:45:39.363Z,44.53
2022-12-25T18:48:06.482Z,59.17
2022-12-25T18:50:33.602Z,44.20
2022-12-25T18:53:00.252Z,54.50
2022-12-25T18:55:26.817Z,55.60
2022-12-25T18:57:53.337Z,50.30
2022-12-25T19:02:48.714Z,64.53
2022-12-25T19:05:15.699Z,56.80
2022-12-25T19:07:42.551Z,49.30
2022-12-25T19:10:10.347Z,54.22
2022-12-25T19:12:37.053Z,64.90
2022-12-25T19:15:03.816Z,77.67
2022-12-25T19:17:32.238Z,70.70
2022-12-25T19:19:58.964Z,67.15
2022-12-25T19:22:25.579Z,75.70
2022-12-25T19:24:52.115Z,74.97
2022-12-25T19:27:18.614Z,87.93
2022-12-25T19:29:45.288Z,73.47
2022-12-25T19:32:12.019Z,78.00
2022-12-25T19:34:38.527Z,68.32
2022-12-25T19:37:05.211Z,67.72
2022-12-25T19:39:31.635Z,72.47
2022-12-25T19:41:58.267Z,74.70
2022-12-25T19:44:24.790Z,74.97
2022-12-25T19:46:51.322Z,64.00
2022-12-25T19:49:17.945Z,91.82
2022-12-25T19:51:46.263Z,56.80
2022-12-25T19:54:14.503Z,67.35
2022-12-25T19:56:41.666Z,64.32
2022-12-25T19:59:08.396Z,60.45
2022-12-25T20:01:35.119Z,63.35
2022-12-25T20:04:01.904Z,49.50
2022-12-25T20:06:29.864Z,51.45
2022-12-25T20:08:57.517Z,49.45
2022-12-25T20:11:25.167Z,50.05
2022-12-25T20:13:51.882Z,45.50
2022-12-25T20:16:18.501Z,55.10
2022-12-25T20:18:45.202Z,47.78
2022-12-25T20:21:14.305Z,47.95
2022-12-25T20:23:47.408Z,58.50
2022-12-25T20:28:42.391Z,45.40
2022-12-25T20:31:10.596Z,46.85
2022-12-25T20:33:37.722Z,49.50
2022-12-25T20:36:05.054Z,49.95
2022-12-25T20:38:31.683Z,44.35
2022-12-25T20:41:25.615Z,48.40
2022-12-25T20:43:45.978Z,44.70
2022-12-25T20:46:13.064Z,37.58
2022-12-25T20:48:39.730Z,36.83
2022-12-25T20:51:10.879Z,47.28
2022-12-25T20:53:37.738Z,41.00
2022-12-25T20:56:04.868Z,43.28
2022-12-25T20:58:31.543Z,44.88
2022-12-25T21:00:58.222Z,37.58
2022-12-25T21:03:25.191Z,37.15
2022-12-25T21:05:55.763Z,39.27
2022-12-25T21:08:24.339Z,41.90
2022-12-25T21:10:52.543Z,42.97
2022-12-25T21:13:20.324Z,41.47
2022-12-25T21:15:47.940Z,36.88
2022-12-25T21:18:15.295Z,39.97
2022-12-25T21:20:48.976Z,39.28
2022-12-25T21:23:16.211Z,36.55
2022-12-25T21:25:42.895Z,36.10
2022-12-25T21:28:09.717Z,33.78
2022-12-25T21:30:36.383Z,30.83
2022-12-25T21:33:21.245Z,31.00
2022-12-25T21:35:47.778Z,31.38
2022-12-25T21:38:14.476Z,29.05
2022-12-25T21:40:41.650Z,31.67
2022-12-25T21:43:08.180Z,29.43
2022-12-25T21:45:35.092Z,33.33
2022-12-25T21:48:03.608Z,29.52
2022-12-25T21:50:48.871Z,31.63
2022-12-25T21:53:18.977Z,33.17
2022-12-25T21:56:04.603Z,35.57
2022-12-25T21:58:31.208Z,33.75
2022-12-25T22:01:01.597Z,39.15
2022-12-25T22:03:28.193Z,37.80
2022-12-25T22:06:21.183Z,36.55
2022-12-25T22:08:48.153Z,36.87
2022-12-25T22:14:18.644Z,39.00
2022-12-25T22:17:24.010Z,46.88
2022-12-25T22:19:50.690Z,46.38
2022-12-25T22:22:21.098Z,42.40
2022-12-25T22:24:48.026Z,46.95
2022-12-25T22:27:14.621Z,36.25
2022-12-25T22:29:41.131Z,43.17
2022-12-25T22:32:08.949Z,41.80
2022-12-25T22:34:35.457Z,46.50
2022-12-25T22:37:03.808Z,45.00
2022-12-25T22:39:30.973Z,41.03
2022-12-25T22:41:58.249Z,43.38
2022-12-25T22:44:25.592Z,43.85
2022-12-25T22:46:52.566Z,46.13
2022-12-25T22:49:19.550Z,44.45
2022-12-25T22:51:47.123Z,50.38
2022-12-25T22:54:14.317Z,44.08
2022-12-25T22:56:41.037Z,47.58
2022-12-25T22:59:07.429Z,53.23
2022-12-25T23:01:34.168Z,49.75
2022-12-25T23:04:00.943Z,52.03
2022-12-25T23:06:27.667Z,53.83
2022-12-25T23:08:54.385Z,44.92
2022-12-25T23:11:24.617Z,44.47
2022-12-25T23:14:10.133Z,56.22
2022-12-25T23:16:36.763Z,55.85
2022-12-25T23:19:23.091Z,49.75
2022-12-25T23:22:08.124Z,47.83
2022-12-25T23:24:53.087Z,44.90
2022-12-25T23:27:19.720Z,47.33
2022-12-25T23:29:46.388Z,46.10
2022-12-25T23:32:14.323Z,49.55
2022-12-25T23:37:09.777Z,49.37
2022-12-25T23:39:36.328Z,51.28
2022-12-25T23:42:03.029Z,50.17
2022-12-25T23:44:29.853Z,48.03
2022-12-25T23:46:56.680Z,47.35
2022-12-25T23:49:23.880Z,41.53
2022-12-25T23:51:51.007Z,54.45
2022-12-25T23:54:19.025Z,47.63
2022-12-25T23:56:46.278Z,48.42
2022-12-25T23:59:12.950Z,50.78
